sensor_id;sensor_type;location;lat;lon;timestamp;pressure;altitude;pressure_sealevel;temperature;humidity
47763;BME280;33526;42.690;23.322;2022-08-19T00:01:23;94812.91;;;22.83;54.17
47763;BME280;33526;42.690;23.322;2022-08-19T00:03:49;94828.56;;;22.89;54.74
47763;BME280;33526;42.690;23.322;2022-08-19T00:06:14;94835.28;;;22.79;55.58
47763;BME280;33526;42.690;23.322;2022-08-19T00:08:40;94840.25;;;22.78;55.82
47763;BME280;33526;42.690;23.322;2022-08-19T00:11:06;94832.66;;;22.81;55.26
47763;BME280;33526;42.690;23.322;2022-08-19T00:13:33;94762.34;;;22.33;55.57
47763;BME280;33526;42.690;23.322;2022-08-19T00:15:59;94761.16;;;22.29;55.25
47763;BME280;33526;42.690;23.322;2022-08-19T00:18:24;94821.91;;;22.66;55.60
47763;BME280;33526;42.690;23.322;2022-08-19T00:20:50;94793.59;;;22.47;55.43
47763;BME280;33526;42.690;23.322;2022-08-19T00:23:16;94772.56;;;22.29;55.15
47763;BME280;33526;42.690;23.322;2022-08-19T00:25:41;94826.06;;;22.65;56.02
47763;BME280;33526;42.690;23.322;2022-08-19T00:28:07;94769.16;;;22.30;55.22
47763;BME280;33526;42.690;23.322;2022-08-19T00:30:32;94788.31;;;22.30;55.68
47763;BME280;33526;42.690;23.322;2022-08-19T00:32:58;94793.53;;;22.39;56.13
47763;BME280;33526;42.690;23.322;2022-08-19T00:35:24;94770.34;;;22.35;55.68
47763;BME280;33526;42.690;23.322;2022-08-19T00:37:53;94841.50;;;22.90;55.57
47763;BME280;33526;42.690;23.322;2022-08-19T00:40:18;94767.00;;;22.44;55.40
47763;BME280;33526;42.690;23.322;2022-08-19T00:42:45;94789.00;;;22.65;55.13
47763;BME280;33526;42.690;23.322;2022-08-19T00:45:15;94796.25;;;22.66;54.96
47763;BME280;33526;42.690;23.322;2022-08-19T00:47:43;94825.09;;;22.83;55.17
47763;BME280;33526;42.690;23.322;2022-08-19T00:50:10;94828.75;;;22.91;55.35
47763;BME280;33526;42.690;23.322;2022-08-19T00:52:39;94818.34;;;22.73;54.52
47763;BME280;33526;42.690;23.322;2022-08-19T00:55:13;94780.06;;;22.40;54.56
47763;BME280;33526;42.690;23.322;2022-08-19T00:57:42;94788.53;;;22.32;54.48
47763;BME280;33526;42.690;23.322;2022-08-19T01:00:12;94826.94;;;22.60;54.69
47763;BME280;33526;42.690;23.322;2022-08-19T01:02:40;94793.81;;;22.28;56.66
47763;BME280;33526;42.690;23.322;2022-08-19T01:05:09;94838.56;;;22.62;57.23
47763;BME280;33526;42.690;23.322;2022-08-19T01:07:37;94801.25;;;22.31;57.73
47763;BME280;33526;42.690;23.322;2022-08-19T01:10:06;94811.72;;;22.36;57.61
47763;BME280;33526;42.690;23.322;2022-08-19T01:12:32;94792.53;;;22.15;57.56
47763;BME280;33526;42.690;23.322;2022-08-19T01:14:58;94818.75;;;22.22;58.12
47763;BME280;33526;42.690;23.322;2022-08-19T01:17:24;94830.06;;;22.27;58.27
47763;BME280;33526;42.690;23.322;2022-08-19T01:19:51;94830.94;;;22.22;58.47
47763;BME280;33526;42.690;23.322;2022-08-19T01:24:51;94784.63;;;21.87;57.38
47763;BME280;33526;42.690;23.322;2022-08-19T01:27:17;94781.56;;;21.85;57.41
47763;BME280;33526;42.690;23.322;2022-08-19T01:29:44;94836.75;;;22.17;57.35
47763;BME280;33526;42.690;23.322;2022-08-19T01:32:12;94779.59;;;21.80;56.69
47763;BME280;33526;42.690;23.322;2022-08-19T01:34:39;94835.28;;;22.02;56.79
47763;BME280;33526;42.690;23.322;2022-08-19T01:37:08;94772.31;;;21.58;56.77
47763;BME280;33526;42.690;23.322;2022-08-19T01:39:36;94800.09;;;21.65;56.71
47763;BME280;33526;42.690;23.322;2022-08-19T01:42:02;94771.44;;;21.36;57.09
47763;BME280;33526;42.690;23.322;2022-08-19T01:44:28;94838.78;;;21.82;57.38
47763;BME280;33526;42.690;23.322;2022-08-19T01:46:54;94777.22;;;21.44;56.88
47763;BME280;33526;42.690;23.322;2022-08-19T01:49:22;94840.22;;;21.75;58.15
47763;BME280;33526;42.690;23.322;2022-08-19T01:51:53;94853.25;;;21.57;58.57
47763;BME280;33526;42.690;23.322;2022-08-19T01:54:21;94774.75;;;21.00;59.25
47763;BME280;33526;42.690;23.322;2022-08-19T01:56:47;94832.47;;;21.35;59.42
47763;BME280;33526;42.690;23.322;2022-08-19T01:59:16;94774.75;;;21.00;59.38
47763;BME280;33526;42.690;23.322;2022-08-19T02:01:43;94848.84;;;21.43;59.32
47763;BME280;33526;42.690;23.322;2022-08-19T02:04:08;94795.06;;;21.05;59.50
47763;BME280;33526;42.690;23.322;2022-08-19T02:06:34;94850.31;;;21.36;59.40
47763;BME280;33526;42.690;23.322;2022-08-19T02:09:01;94800.53;;;21.03;59.03
47763;BME280;33526;42.690;23.322;2022-08-19T02:11:31;94839.03;;;21.44;59.30
47763;BME280;33526;42.690;23.322;2022-08-19T02:13:57;94812.13;;;21.31;59.31
47763;BME280;33526;42.690;23.322;2022-08-19T02:16:23;94798.56;;;21.24;59.13
47763;BME280;33526;42.690;23.322;2022-08-19T02:18:49;94818.47;;;21.37;58.96
47763;BME280;33526;42.690;23.322;2022-08-19T02:21:17;94780.66;;;21.16;59.27
47763;BME280;33526;42.690;23.322;2022-08-19T02:23:43;94838.41;;;21.51;59.46
47763;BME280;33526;42.690;23.322;2022-08-19T02:26:09;94806.34;;;21.24;59.21
47763;BME280;33526;42.690;23.322;2022-08-19T02:28:34;94853.50;;;21.59;59.60
47763;BME280;33526;42.690;23.322;2022-08-19T02:31:02;94846.47;;;21.60;59.56
47763;BME280;33526;42.690;23.322;2022-08-19T02:33:28;94848.78;;;21.62;59.50
47763;BME280;33526;42.690;23.322;2022-08-19T02:35:53;94841.13;;;21.56;59.22
47763;BME280;33526;42.690;23.322;2022-08-19T02:38:19;94768.63;;;20.96;59.96
47763;BME280;33526;42.690;23.322;2022-08-19T02:40:52;94793.34;;;21.02;60.28
47763;BME280;33526;42.690;23.322;2022-08-19T02:43:19;94843.41;;;21.31;60.04
47763;BME280;33526;42.690;23.322;2022-08-19T02:45:48;94818.81;;;21.07;60.73
47763;BME280;33526;42.690;23.322;2022-08-19T02:48:19;94850.50;;;21.25;60.82
47763;BME280;33526;42.690;23.322;2022-08-19T02:50:45;94807.81;;;20.71;61.41
47763;BME280;33526;42.690;23.322;2022-08-19T02:53:11;94841.94;;;20.85;62.06
47763;BME280;33526;42.690;23.322;2022-08-19T02:55:45;94839.94;;;20.79;62.20
47763;BME280;33526;42.690;23.322;2022-08-19T02:58:12;94753.47;;;20.16;62.22
47763;BME280;33526;42.690;23.322;2022-08-19T03:00:43;94787.50;;;20.35;62.67
47763;BME280;33526;42.690;23.322;2022-08-19T03:03:09;94834.69;;;20.70;62.60
47763;BME280;33526;42.690;23.322;2022-08-19T03:05:35;94859.16;;;20.73;62.59
47763;BME280;33526;42.690;23.322;2022-08-19T03:08:00;94780.69;;;20.24;62.83
47763;BME280;33526;42.690;23.322;2022-08-19T03:10:26;94806.13;;;20.49;62.63
47763;BME280;33526;42.690;23.322;2022-08-19T03:12:52;94847.69;;;20.66;62.92
47763;BME280;33526;42.690;23.322;2022-08-19T03:15:17;94825.88;;;20.55;62.99
47763;BME280;33526;42.690;23.322;2022-08-19T03:17:43;94807.19;;;20.46;63.39
47763;BME280;33526;42.690;23.322;2022-08-19T03:20:09;94786.38;;;20.24;63.95
47763;BME280;33526;42.690;23.322;2022-08-19T03:22:36;94846.59;;;20.69;64.15
47763;BME280;33526;42.690;23.322;2022-08-19T03:25:01;94830.47;;;20.58;63.92
47763;BME280;33526;42.690;23.322;2022-08-19T03:27:27;94784.38;;;20.19;63.87
47763;BME280;33526;42.690;23.322;2022-08-19T03:29:52;94795.09;;;20.27;64.12
47763;BME280;33526;42.690;23.322;2022-08-19T03:32:18;94855.34;;;20.71;64.46
47763;BME280;33526;42.690;23.322;2022-08-19T03:34:44;94847.50;;;20.77;63.83
47763;BME280;33526;42.690;23.322;2022-08-19T03:37:11;94796.34;;;20.31;64.21
47763;BME280;33526;42.690;23.322;2022-08-19T03:39:38;94850.91;;;20.56;64.47
47763;BME280;33526;42.690;23.322;2022-08-19T03:42:04;94856.28;;;20.60;64.57
47763;BME280;33526;42.690;23.322;2022-08-19T03:44:30;94821.56;;;20.35;64.34
47763;BME280;33526;42.690;23.322;2022-08-19T03:46:59;94857.28;;;20.62;64.06
47763;BME280;33526;42.690;23.322;2022-08-19T03:49:27;94848.81;;;20.57;64.04
47763;BME280;33526;42.690;23.322;2022-08-19T03:51:55;94810.28;;;20.29;63.79
47763;BME280;33526;42.690;23.322;2022-08-19T03:54:23;94824.00;;;20.44;64.07
47763;BME280;33526;42.690;23.322;2022-08-19T03:56:49;94872.41;;;20.84;63.82
47763;BME280;33526;42.690;23.322;2022-08-19T03:59:19;94852.91;;;20.61;63.43
47763;BME280;33526;42.690;23.322;2022-08-19T04:01:45;94815.66;;;20.33;63.64
47763;BME280;33526;42.690;23.322;2022-08-19T04:04:12;94816.56;;;20.41;63.19
47763;BME280;33526;42.690;23.322;2022-08-19T04:06:38;94893.22;;;20.92;63.79
47763;BME280;33526;42.690;23.322;2022-08-19T04:09:08;94843.75;;;20.69;62.66
47763;BME280;33526;42.690;23.322;2022-08-19T04:11:39;94886.22;;;21.07;62.59
47763;BME280;33526;42.690;23.322;2022-08-19T04:14:08;94849.28;;;20.93;62.66
47763;BME280;33526;42.690;23.322;2022-08-19T04:16:34;94887.38;;;21.30;62.40
47763;BME280;33526;42.690;23.322;2022-08-19T04:19:01;94864.63;;;21.30;61.84
47763;BME280;33526;42.690;23.322;2022-08-19T04:21:27;94896.81;;;21.52;61.38
47763;BME280;33526;42.690;23.322;2022-08-19T04:23:54;94871.72;;;21.37;61.75
47763;BME280;33526;42.690;23.322;2022-08-19T04:26:26;94890.66;;;21.48;62.21
47763;BME280;33526;42.690;23.322;2022-08-19T04:28:52;94887.84;;;21.61;61.96
47763;BME280;33526;42.690;23.322;2022-08-19T04:31:22;94874.69;;;21.71;61.08
47763;BME280;33526;42.690;23.322;2022-08-19T04:33:48;94892.91;;;22.16;59.82
47763;BME280;33526;42.690;23.322;2022-08-19T04:36:18;94898.16;;;22.60;58.84
47763;BME280;33526;42.690;23.322;2022-08-19T04:38:46;94820.75;;;22.27;58.41
47763;BME280;33526;42.690;23.322;2022-08-19T04:41:11;94881.66;;;22.79;57.86
47763;BME280;33526;42.690;23.322;2022-08-19T04:43:55;94863.78;;;22.58;57.72
47763;BME280;33526;42.690;23.322;2022-08-19T04:46:21;94895.63;;;23.12;57.32
47763;BME280;33526;42.690;23.322;2022-08-19T04:48:46;94883.13;;;23.15;56.56
47763;BME280;33526;42.690;23.322;2022-08-19T04:51:12;94848.66;;;23.05;56.25
47763;BME280;33526;42.690;23.322;2022-08-19T04:53:40;94842.34;;;23.27;55.36
47763;BME280;33526;42.690;23.322;2022-08-19T04:56:12;94894.41;;;23.78;54.87
47763;BME280;33526;42.690;23.322;2022-08-19T04:58:41;94886.41;;;23.76;54.33
47763;BME280;33526;42.690;23.322;2022-08-19T05:01:18;94892.25;;;23.99;53.61
47763;BME280;33526;42.690;23.322;2022-08-19T05:03:44;94834.16;;;23.89;52.37
47763;BME280;33526;42.690;23.322;2022-08-19T05:06:12;94903.41;;;24.26;52.54
47763;BME280;33526;42.690;23.322;2022-08-19T05:08:39;94837.66;;;24.11;51.95
47763;BME280;33526;42.690;23.322;2022-08-19T05:11:18;94896.16;;;24.69;51.57
47763;BME280;33526;42.690;23.322;2022-08-19T05:13:46;94875.91;;;24.59;51.71
47763;BME280;33526;42.690;23.322;2022-08-19T05:16:13;94843.19;;;24.68;50.43
47763;BME280;33526;42.690;23.322;2022-08-19T05:18:40;94852.22;;;24.28;51.71
47763;BME280;33526;42.690;23.322;2022-08-19T05:21:24;94816.72;;;24.00;52.14
47763;BME280;33526;42.690;23.322;2022-08-19T05:24:08;94825.94;;;24.22;51.64
47763;BME280;33526;42.690;23.322;2022-08-19T05:26:38;94838.91;;;24.38;51.14
47763;BME280;33526;42.690;23.322;2022-08-19T05:29:05;94832.31;;;23.99;52.26
47763;BME280;33526;42.690;23.322;2022-08-19T05:31:32;94904.38;;;24.29;53.01
47763;BME280;33526;42.690;23.322;2022-08-19T05:33:58;94830.66;;;24.27;52.01
47763;BME280;33526;42.690;23.322;2022-08-19T05:36:28;94848.91;;;24.91;50.53
47763;BME280;33526;42.690;23.322;2022-08-19T05:38:54;94842.06;;;25.17;49.74
47763;BME280;33526;42.690;23.322;2022-08-19T05:41:21;94841.13;;;25.38;49.11
47763;BME280;33526;42.690;23.322;2022-08-19T05:43:55;94903.44;;;25.70;48.93
47763;BME280;33526;42.690;23.322;2022-08-19T05:46:20;94901.50;;;25.88;48.51
47763;BME280;33526;42.690;23.322;2022-08-19T05:48:47;94899.25;;;25.79;48.62
47763;BME280;33526;42.690;23.322;2022-08-19T05:51:14;94867.44;;;25.36;48.95
47763;BME280;33526;42.690;23.322;2022-08-19T05:53:39;94860.91;;;25.67;48.13
47763;BME280;33526;42.690;23.322;2022-08-19T05:56:06;94846.28;;;25.32;48.60
47763;BME280;33526;42.690;23.322;2022-08-19T05:58:32;94908.63;;;25.56;49.17
47763;BME280;33526;42.690;23.322;2022-08-19T06:00:58;94902.34;;;25.50;49.26
47763;BME280;33526;42.690;23.322;2022-08-19T06:03:32;94902.69;;;24.93;51.17
47763;BME280;33526;42.690;23.322;2022-08-19T06:05:59;94853.03;;;24.52;50.57
47763;BME280;33526;42.690;23.322;2022-08-19T06:08:26;94849.41;;;24.43;50.31
47763;BME280;33526;42.690;23.322;2022-08-19T06:10:51;94917.59;;;24.47;50.62
47763;BME280;33526;42.690;23.322;2022-08-19T06:13:17;94870.16;;;23.92;51.25
47763;BME280;33526;42.690;23.322;2022-08-19T06:15:44;94843.34;;;23.95;51.07
47763;BME280;33526;42.690;23.322;2022-08-19T06:18:12;94907.41;;;24.31;50.84
47763;BME280;33526;42.690;23.322;2022-08-19T06:20:38;94878.28;;;24.24;51.40
47763;BME280;33526;42.690;23.322;2022-08-19T06:23:04;94911.28;;;24.49;51.27
47763;BME280;33526;42.690;23.322;2022-08-19T06:25:30;94848.88;;;24.01;51.17
47763;BME280;33526;42.690;23.322;2022-08-19T06:27:55;94848.41;;;24.26;51.10
47763;BME280;33526;42.690;23.322;2022-08-19T06:30:21;94861.53;;;24.29;51.29
47763;BME280;33526;42.690;23.322;2022-08-19T06:32:46;94822.84;;;24.20;50.90
47763;BME280;33526;42.690;23.322;2022-08-19T06:35:12;94886.22;;;24.55;50.79
47763;BME280;33526;42.690;23.322;2022-08-19T06:37:40;94899.31;;;24.50;50.97
47763;BME280;33526;42.690;23.322;2022-08-19T06:40:06;94914.63;;;24.68;51.15
47763;BME280;33526;42.690;23.322;2022-08-19T06:42:34;94852.94;;;24.21;50.96
47763;BME280;33526;42.690;23.322;2022-08-19T06:45:00;94879.28;;;24.35;51.51
47763;BME280;33526;42.690;23.322;2022-08-19T06:47:28;94922.06;;;24.71;51.13
47763;BME280;33526;42.690;23.322;2022-08-19T06:49:55;94861.03;;;24.46;51.42
47763;BME280;33526;42.690;23.322;2022-08-19T06:52:27;94914.47;;;24.89;50.70
47763;BME280;33526;42.690;23.322;2022-08-19T06:54:52;94899.63;;;25.06;50.33
47763;BME280;33526;42.690;23.322;2022-08-19T06:57:19;94854.63;;;24.76;49.80
47763;BME280;33526;42.690;23.322;2022-08-19T06:59:45;94842.41;;;24.75;50.15
47763;BME280;33526;42.690;23.322;2022-08-19T07:02:10;94855.78;;;25.04;50.27
47763;BME280;33526;42.690;23.322;2022-08-19T07:04:36;94918.72;;;25.42;49.63
47763;BME280;33526;42.690;23.322;2022-08-19T07:07:09;94901.75;;;25.44;49.61
47763;BME280;33526;42.690;23.322;2022-08-19T07:09:38;94884.03;;;25.53;49.23
47763;BME280;33526;42.690;23.322;2022-08-19T07:12:06;94922.31;;;25.81;49.00
47763;BME280;33526;42.690;23.322;2022-08-19T07:14:34;94868.75;;;25.51;48.48
47763;BME280;33526;42.690;23.322;2022-08-19T07:17:05;94894.63;;;25.91;48.17
47763;BME280;33526;42.690;23.322;2022-08-19T07:19:31;94862.84;;;25.49;48.30
47763;BME280;33526;42.690;23.322;2022-08-19T07:21:57;94856.91;;;25.54;48.28
47763;BME280;33526;42.690;23.322;2022-08-19T07:24:25;94872.94;;;25.58;48.45
47763;BME280;33526;42.690;23.322;2022-08-19T07:26:54;94904.22;;;25.71;48.39
47763;BME280;33526;42.690;23.322;2022-08-19T07:29:22;94916.72;;;26.14;47.94
47763;BME280;33526;42.690;23.322;2022-08-19T07:31:50;94908.38;;;26.01;48.29
47763;BME280;33526;42.690;23.322;2022-08-19T07:34:16;94888.69;;;26.05;48.29
47763;BME280;33526;42.690;23.322;2022-08-19T07:36:42;94880.09;;;26.05;47.75
47763;BME280;33526;42.690;23.322;2022-08-19T07:39:12;94909.78;;;26.32;47.63
47763;BME280;33526;42.690;23.322;2022-08-19T07:41:38;94876.22;;;26.25;47.11
47763;BME280;33526;42.690;23.322;2022-08-19T07:44:04;94854.81;;;26.26;46.93
47763;BME280;33526;42.690;23.322;2022-08-19T07:46:34;94911.84;;;26.88;45.93
47763;BME280;33526;42.690;23.322;2022-08-19T07:49:00;94859.97;;;26.68;46.17
47763;BME280;33526;42.690;23.322;2022-08-19T07:51:27;94909.06;;;27.05;45.28
47763;BME280;33526;42.690;23.322;2022-08-19T07:53:53;94892.19;;;27.09;45.72
47763;BME280;33526;42.690;23.322;2022-08-19T07:56:20;94903.09;;;27.36;45.62
47763;BME280;33526;42.690;23.322;2022-08-19T07:58:47;94870.19;;;27.37;44.74
47763;BME280;33526;42.690;23.322;2022-08-19T08:01:20;94913.94;;;27.45;44.25
47763;BME280;33526;42.690;23.322;2022-08-19T08:03:47;94905.28;;;27.53;43.93
47763;BME280;33526;42.690;23.322;2022-08-19T08:06:31;94878.75;;;27.45;44.34
47763;BME280;33526;42.690;23.322;2022-08-19T08:09:19;94883.22;;;27.56;43.31
47763;BME280;33526;42.690;23.322;2022-08-19T08:11:51;94906.06;;;27.89;43.57
47763;BME280;33526;42.690;23.322;2022-08-19T08:14:21;94886.63;;;27.79;42.98
47763;BME280;33526;42.690;23.322;2022-08-19T08:16:47;94870.34;;;27.64;42.68
47763;BME280;33526;42.690;23.322;2022-08-19T08:19:17;94902.97;;;27.94;42.75
47763;BME280;33526;42.690;23.322;2022-08-19T08:21:43;94873.41;;;27.84;42.47
47763;BME280;33526;42.690;23.322;2022-08-19T08:24:09;94891.75;;;28.06;42.08
47763;BME280;33526;42.690;23.322;2022-08-19T08:26:36;94882.63;;;28.17;41.94
47763;BME280;33526;42.690;23.322;2022-08-19T08:29:02;94885.22;;;28.23;41.90
47763;BME280;33526;42.690;23.322;2022-08-19T08:31:28;94885.63;;;28.37;41.39
47763;BME280;33526;42.690;23.322;2022-08-19T08:33:54;94886.13;;;28.60;40.69
47763;BME280;33526;42.690;23.322;2022-08-19T08:36:19;94859.88;;;28.74;40.24
47763;BME280;33526;42.690;23.322;2022-08-19T08:38:46;94837.34;;;28.80;40.06
47763;BME280;33526;42.690;23.322;2022-08-19T08:41:37;94815.22;;;28.73;39.40
47763;BME280;33526;42.690;23.322;2022-08-19T08:44:13;94866.50;;;29.21;39.31
47763;BME280;33526;42.690;23.322;2022-08-19T08:46:46;94837.56;;;28.92;38.11
47763;BME280;33526;42.690;23.322;2022-08-19T08:52:13;94826.34;;;29.23;36.60
47763;BME280;33526;42.690;23.322;2022-08-19T08:54:43;94782.06;;;29.09;35.53
47763;BME280;33526;42.690;23.322;2022-08-19T08:57:50;94861.47;;;29.68;35.66
47763;BME280;33526;42.690;23.322;2022-08-19T09:00:38;94814.84;;;29.23;36.89
47763;BME280;33526;42.690;23.322;2022-08-19T09:03:34;94863.91;;;29.82;36.08
47763;BME280;33526;42.690;23.322;2022-08-19T09:06:06;94842.09;;;29.88;35.18
47763;BME280;33526;42.690;23.322;2022-08-19T09:08:45;94842.28;;;30.00;35.54
47763;BME280;33526;42.690;23.322;2022-08-19T09:16:45;94832.09;;;30.19;34.67
47763;BME280;33526;42.690;23.322;2022-08-19T09:19:11;94838.13;;;30.52;34.53
47763;BME280;33526;42.690;23.322;2022-08-19T09:21:36;94798.25;;;30.39;34.03
47763;BME280;33526;42.690;23.322;2022-08-19T09:24:04;94828.09;;;30.73;32.06
47763;BME280;33526;42.690;23.322;2022-08-19T09:26:31;94778.66;;;30.57;31.83
47763;BME280;33526;42.690;23.322;2022-08-19T09:28:58;94841.25;;;30.95;30.83
47763;BME280;33526;42.690;23.322;2022-08-19T09:31:25;94836.38;;;30.88;30.94
47763;BME280;33526;42.690;23.322;2022-08-19T09:33:52;94780.63;;;30.54;32.03
47763;BME280;33526;42.690;23.322;2022-08-19T09:36:24;94826.38;;;30.89;30.34
47763;BME280;33526;42.690;23.322;2022-08-19T09:38:50;94797.94;;;30.54;30.56
47763;BME280;33526;42.690;23.322;2022-08-19T09:41:18;94835.00;;;30.99;30.47
47763;BME280;33526;42.690;23.322;2022-08-19T09:43:46;94792.06;;;30.83;31.14
47763;BME280;33526;42.690;23.322;2022-08-19T09:46:12;94767.13;;;30.98;29.86
47763;BME280;33526;42.690;23.322;2022-08-19T09:48:39;94788.38;;;31.34;29.38
47763;BME280;33526;42.690;23.322;2022-08-19T09:51:13;94822.59;;;31.80;28.73
47763;BME280;33526;42.690;23.322;2022-08-19T09:53:45;94793.56;;;31.57;29.25
47763;BME280;33526;42.690;23.322;2022-08-19T09:56:12;94774.31;;;31.50;28.49
47763;BME280;33526;42.690;23.322;2022-08-19T09:58:38;94783.31;;;31.66;28.37
47763;BME280;33526;42.690;23.322;2022-08-19T10:01:05;94819.63;;;31.90;28.12
47763;BME280;33526;42.690;23.322;2022-08-19T10:03:32;94780.09;;;31.71;28.10
47763;BME280;33526;42.690;23.322;2022-08-19T10:05:59;94801.19;;;31.95;28.11
47763;BME280;33526;42.690;23.322;2022-08-19T10:08:30;94800.56;;;31.97;28.25
47763;BME280;33526;42.690;23.322;2022-08-19T10:10:57;94786.72;;;31.95;28.46
47763;BME280;33526;42.690;23.322;2022-08-19T10:13:26;94735.78;;;31.78;28.85
47763;BME280;33526;42.690;23.322;2022-08-19T10:15:53;94795.22;;;32.36;28.17
47763;BME280;33526;42.690;23.322;2022-08-19T10:18:22;94807.16;;;32.31;28.69
47763;BME280;33526;42.690;23.322;2022-08-19T10:20:48;94758.53;;;32.06;28.44
47763;BME280;33526;42.690;23.322;2022-08-19T10:23:15;94771.41;;;32.26;28.49
47763;BME280;33526;42.690;23.322;2022-08-19T10:25:41;94781.28;;;32.45;28.35
47763;BME280;33526;42.690;23.322;2022-08-19T10:28:07;94791.84;;;32.52;28.48
47763;BME280;33526;42.690;23.322;2022-08-19T10:30:35;94787.97;;;32.47;28.58
47763;BME280;33526;42.690;23.322;2022-08-19T10:33:01;94749.81;;;32.39;28.71
47763;BME280;33526;42.690;23.322;2022-08-19T10:35:27;94747.22;;;32.55;29.36
47763;BME280;33526;42.690;23.322;2022-08-19T10:37:56;94755.47;;;32.37;29.73
47763;BME280;33526;42.690;23.322;2022-08-19T10:40:26;94760.81;;;32.52;28.78
47763;BME280;33526;42.690;23.322;2022-08-19T10:42:52;94720.81;;;32.49;28.14
47763;BME280;33526;42.690;23.322;2022-08-19T10:45:20;94744.00;;;32.72;28.21
47763;BME280;33526;42.690;23.322;2022-08-19T10:47:48;94767.44;;;32.88;28.23
47763;BME280;33526;42.690;23.322;2022-08-19T10:50:13;94761.75;;;32.79;27.60
47763;BME280;33526;42.690;23.322;2022-08-19T10:53:06;94771.69;;;32.75;28.18
47763;BME280;33526;42.690;23.322;2022-08-19T10:55:34;94771.16;;;32.67;28.29
47763;BME280;33526;42.690;23.322;2022-08-19T10:58:19;94741.31;;;32.53;28.59
47763;BME280;33526;42.690;23.322;2022-08-19T11:00:57;94739.91;;;32.42;28.02
47763;BME280;33526;42.690;23.322;2022-08-19T11:03:24;94744.31;;;32.43;28.34
47763;BME280;33526;42.690;23.322;2022-08-19T11:06:03;94771.94;;;32.80;27.93
47763;BME280;33526;42.690;23.322;2022-08-19T11:08:29;94736.66;;;32.48;27.46
47763;BME280;33526;42.690;23.322;2022-08-19T11:10:59;94712.22;;;32.27;28.18
47763;BME280;33526;42.690;23.322;2022-08-19T11:13:29;94738.91;;;32.49;27.60
47763;BME280;33526;42.690;23.322;2022-08-19T11:16:09;94767.81;;;32.83;28.20
47763;BME280;33526;42.690;23.322;2022-08-19T11:18:41;94754.84;;;32.84;27.74
47763;BME280;33526;42.690;23.322;2022-08-19T11:21:35;94760.38;;;32.80;28.26
47763;BME280;33526;42.690;23.322;2022-08-19T11:24:04;94689.72;;;32.37;28.19
47763;BME280;33526;42.690;23.322;2022-08-19T11:26:32;94733.44;;;32.89;28.02
47763;BME280;33526;42.690;23.322;2022-08-19T11:28:59;94752.47;;;33.16;27.30
47763;BME280;33526;42.690;23.322;2022-08-19T11:31:28;94740.59;;;33.11;27.65
47763;BME280;33526;42.690;23.322;2022-08-19T11:33:59;94676.78;;;32.38;28.33
47763;BME280;33526;42.690;23.322;2022-08-19T11:36:27;94743.28;;;32.95;27.82
47763;BME280;33526;42.690;23.322;2022-08-19T11:38:54;94696.19;;;32.60;28.04
47763;BME280;33526;42.690;23.322;2022-08-19T11:41:21;94693.13;;;32.46;28.26
47763;BME280;33526;42.690;23.322;2022-08-19T11:43:49;94664.06;;;32.32;27.96
47763;BME280;33526;42.690;23.322;2022-08-19T11:46:15;94715.84;;;32.85;28.33
47763;BME280;33526;42.690;23.322;2022-08-19T11:48:43;94707.53;;;32.67;28.00
47763;BME280;33526;42.690;23.322;2022-08-19T11:51:11;94673.63;;;32.46;28.58
47763;BME280;33526;42.690;23.322;2022-08-19T11:53:38;94690.91;;;32.68;28.26
47763;BME280;33526;42.690;23.322;2022-08-19T11:56:07;94673.25;;;32.52;28.06
47763;BME280;33526;42.690;23.322;2022-08-19T11:58:33;94722.97;;;33.07;28.39
47763;BME280;33526;42.690;23.322;2022-08-19T12:00:59;94727.16;;;32.92;27.83
47763;BME280;33526;42.690;23.322;2022-08-19T12:03:25;94653.91;;;32.54;27.80
47763;BME280;33526;42.690;23.322;2022-08-19T12:05:51;94711.66;;;33.11;27.96
47763;BME280;33526;42.690;23.322;2022-08-19T12:08:17;94665.25;;;32.98;28.33
47763;BME280;33526;42.690;23.322;2022-08-19T12:10:43;94708.25;;;33.27;27.58
47763;BME280;33526;42.690;23.322;2022-08-19T12:13:11;94683.34;;;33.10;27.58
47763;BME280;33526;42.690;23.322;2022-08-19T12:15:39;94696.78;;;33.29;27.72
47763;BME280;33526;42.690;23.322;2022-08-19T12:18:07;94661.69;;;33.11;27.44
47763;BME280;33526;42.690;23.322;2022-08-19T12:20:37;94676.66;;;33.31;27.67
47763;BME280;33526;42.690;23.322;2022-08-19T12:23:04;94650.06;;;33.34;27.53
47763;BME280;33526;42.690;23.322;2022-08-19T12:25:30;94680.59;;;33.73;27.93
47763;BME280;33526;42.690;23.322;2022-08-19T12:27:56;94635.91;;;33.52;27.60
47763;BME280;33526;42.690;23.322;2022-08-19T12:30:22;94631.34;;;33.61;26.98
47763;BME280;33526;42.690;23.322;2022-08-19T12:32:48;94621.53;;;33.55;27.21
47763;BME280;33526;42.690;23.322;2022-08-19T12:35:14;94673.28;;;33.98;26.89
47763;BME280;33526;42.690;23.322;2022-08-19T12:37:39;94662.69;;;33.77;27.21
47763;BME280;33526;42.690;23.322;2022-08-19T12:40:08;94599.50;;;33.24;26.97
47763;BME280;33526;42.690;23.322;2022-08-19T12:42:33;94661.34;;;33.66;26.90
47763;BME280;33526;42.690;23.322;2022-08-19T12:45:00;94661.78;;;33.74;26.99
47763;BME280;33526;42.690;23.322;2022-08-19T12:47:25;94604.56;;;33.49;27.37
47763;BME280;33526;42.690;23.322;2022-08-19T12:49:51;94665.50;;;33.88;26.76
47763;BME280;33526;42.690;23.322;2022-08-19T12:52:17;94619.63;;;33.71;26.46
47763;BME280;33526;42.690;23.322;2022-08-19T12:54:46;94619.25;;;33.90;26.90
47763;BME280;33526;42.690;23.322;2022-08-19T12:57:11;94652.88;;;34.21;26.95
47763;BME280;33526;42.690;23.322;2022-08-19T12:59:38;94656.81;;;34.14;26.81
47763;BME280;33526;42.690;23.322;2022-08-19T13:02:04;94589.47;;;33.76;26.61
47763;BME280;33526;42.690;23.322;2022-08-19T13:04:34;94634.41;;;34.03;26.65
47763;BME280;33526;42.690;23.322;2022-08-19T13:07:02;94581.44;;;33.63;26.69